PWSweather.com
Personal Weather Stations
Station Observations
VA3TWT
Blenheim Ontario, Blenheim, ON N0P 1A0

Blenheim OntarioBlenheim, ON N0P 1A0

Lat: 42.338464, Lon: -81.988628

Elevation: 688.976

Station Type: Davis vantage Pro2

Latest ConditionsUpdated 8:30:01 PM EDT Wednesday, Aug 15, 2018
Currently Today's Max Today's Min Today's Average
Temperature 75.2°F24.0°C 85.5°F29.7°C 69.4°F20.8°C 77.2°F25.1°C
Dew Point 70.0°F21.1°C 73.0°F22.8°C 64.9°F18.3°C 68.7°F20.4°C
Winds 1.0 mph SSW1.6 kmh SSW 9.0 mph -14.5 kmh - - 3.6 mph 5.8 kmh
Wind Gusts 3.0 mph4.8 kmh 15.0 mph24.1 kmh - -
Humidity 84% 87% 58% 76%
Pressure 29.99 in1015.6 mb 30.00 in1015.9 mb 29.93 in1013.5 mb -
Hour Temp Dew Point Humidity Winds Wind Gusts Pressure Precip Precip Rate Daily Precip Total
08:30 PM 75.2°F24.0°C 70.0°F21.1°C 84% 1.0 mph SSW1.6 kmh SSW 3.0 mph4.8 kmh 29.99 in1015.6 mb 0.00 in0.0 mm 0.00 in0.0 mm 0.00 in0.0 mm
08:20 PM 75.9°F24.4°C 70.3°F21.3°C 83% 2.0 mph SSW3.2 kmh SSW 3.0 mph4.8 kmh 29.98 in1015.2 mb 0.00 in0.0 mm 0.00 in0.0 mm 0.00 in0.0 mm
08:10 PM 76.5°F24.7°C 70.5°F21.4°C 82% 3.0 mph SSW4.8 kmh SSW 5.0 mph8.0 kmh 29.98 in1015.2 mb 0.00 in0.0 mm 0.00 in0.0 mm 0.00 in0.0 mm
08:00 PM 77.0°F25.0°C 70.7°F21.5°C 81% 4.0 mph SSW6.4 kmh SSW 6.0 mph9.7 kmh 29.98 in1015.2 mb 0.00 in0.0 mm 0.00 in0.0 mm 0.00 in0.0 mm
07:50 PM 77.2°F25.1°C 70.9°F21.6°C 81% 4.0 mph SSW6.4 kmh SSW 6.0 mph9.7 kmh 29.98 in1015.2 mb 0.00 in0.0 mm 0.00 in0.0 mm 0.00 in0.0 mm
07:40 PM 77.4°F25.2°C 71.4°F21.9°C 82% 4.0 mph SSW6.4 kmh SSW 6.0 mph9.7 kmh 29.98 in1015.2 mb 0.00 in0.0 mm 0.00 in0.0 mm 0.00 in0.0 mm
07:30 PM 77.7°F25.4°C 71.4°F21.9°C 81% 5.0 mph SW8.0 kmh SW 7.0 mph11.3 kmh 29.98 in1015.2 mb 0.00 in0.0 mm 0.00 in0.0 mm 0.00 in0.0 mm
07:20 PM 78.3°F25.7°C 71.2°F21.8°C 79% 5.0 mph SSW8.0 kmh SSW 7.0 mph11.3 kmh 29.98 in1015.2 mb 0.00 in0.0 mm 0.00 in0.0 mm 0.00 in0.0 mm
07:10 PM 78.6°F25.9°C 71.6°F22.0°C 79% 6.0 mph SSW9.7 kmh SSW 8.0 mph12.9 kmh 29.98 in1015.2 mb 0.00 in0.0 mm 0.00 in0.0 mm 0.00 in0.0 mm
07:00 PM 79.0°F26.1°C 71.1°F21.7°C 77% 5.0 mph SSW8.0 kmh SSW 7.0 mph11.3 kmh 29.98 in1015.2 mb 0.00 in0.0 mm 0.00 in0.0 mm 0.00 in0.0 mm
06:50 PM 79.5°F26.4°C 71.2°F21.8°C 76% 6.0 mph SSW9.7 kmh SSW 8.0 mph12.9 kmh 29.98 in1015.2 mb 0.00 in0.0 mm 0.00 in0.0 mm 0.00 in0.0 mm
06:40 PM 80.2°F26.8°C 71.6°F22.0°C 75% 6.0 mph SSW9.7 kmh SSW 10.0 mph16.1 kmh 29.98 in1015.2 mb 0.00 in0.0 mm 0.00 in0.0 mm 0.00 in0.0 mm
06:30 PM 81.1°F27.3°C 72.0°F22.2°C 74% 6.0 mph SSW9.7 kmh SSW 9.0 mph14.5 kmh 29.98 in1015.2 mb 0.00 in0.0 mm 0.00 in0.0 mm 0.00 in0.0 mm
06:20 PM 81.3°F27.4°C 71.1°F21.7°C 71% 6.0 mph SW9.7 kmh SW 9.0 mph14.5 kmh 29.98 in1015.2 mb 0.00 in0.0 mm 0.00 in0.0 mm 0.00 in0.0 mm
06:10 PM 81.3°F27.4°C 70.2°F21.2°C 69% 6.0 mph SW9.7 kmh SW 11.0 mph17.7 kmh 29.98 in1015.2 mb 0.00 in0.0 mm 0.00 in0.0 mm 0.00 in0.0 mm
06:00 PM 81.3°F27.4°C 70.2°F21.2°C 69% 6.0 mph SW9.7 kmh SW 10.0 mph16.1 kmh 29.98 in1015.2 mb 0.00 in0.0 mm 0.00 in0.0 mm 0.00 in0.0 mm
05:50 PM 81.7°F27.6°C 70.2°F21.2°C 68% 8.0 mph SW12.9 kmh SW 13.0 mph20.9 kmh 29.98 in1015.2 mb 0.00 in0.0 mm 0.00 in0.0 mm 0.00 in0.0 mm
05:40 PM 82.6°F28.1°C 70.0°F21.1°C 66% 7.0 mph SW11.3 kmh SW 12.0 mph19.3 kmh 29.98 in1015.2 mb 0.00 in0.0 mm 0.00 in0.0 mm 0.00 in0.0 mm
05:30 PM 83.3°F28.5°C 70.3°F21.3°C 65% 6.0 mph SW9.7 kmh SW 11.0 mph17.7 kmh 29.98 in1015.2 mb 0.00 in0.0 mm 0.00 in0.0 mm 0.00 in0.0 mm
05:20 PM 82.9°F28.3°C 70.3°F21.3°C 66% 6.0 mph SW9.7 kmh SW 10.0 mph16.1 kmh 29.98 in1015.2 mb 0.00 in0.0 mm 0.00 in0.0 mm 0.00 in0.0 mm
05:10 PM 83.3°F28.5°C 68.9°F20.5°C 62% 5.0 mph SW8.0 kmh SW 11.0 mph17.7 kmh 29.98 in1015.2 mb 0.00 in0.0 mm 0.00 in0.0 mm 0.00 in0.0 mm
05:00 PM 83.3°F28.5°C 69.4°F20.8°C 63% 6.0 mph SW9.7 kmh SW 10.0 mph16.1 kmh 29.98 in1015.2 mb 0.00 in0.0 mm 0.00 in0.0 mm 0.00 in0.0 mm
04:50 PM 83.7°F28.7°C 71.1°F21.7°C 66% 5.0 mph SW8.0 kmh SW 11.0 mph17.7 kmh 29.99 in1015.6 mb 0.00 in0.0 mm 0.00 in0.0 mm 0.00 in0.0 mm
04:40 PM 83.3°F28.5°C 70.7°F21.5°C 66% 6.0 mph SW9.7 kmh SW 13.0 mph20.9 kmh 29.99 in1015.6 mb 0.00 in0.0 mm 0.00 in0.0 mm 0.00 in0.0 mm
04:30 PM 82.8°F28.2°C 70.7°F21.5°C 67% 6.0 mph WSW9.7 kmh WSW 11.0 mph17.7 kmh 29.99 in1015.6 mb 0.00 in0.0 mm 0.00 in0.0 mm 0.00 in0.0 mm
04:20 PM 83.1°F28.4°C 69.6°F20.9°C 64% 6.0 mph SW9.7 kmh SW 11.0 mph17.7 kmh 29.99 in1015.6 mb 0.00 in0.0 mm 0.00 in0.0 mm 0.00 in0.0 mm
04:10 PM 84.4°F29.1°C 70.9°F21.6°C 64% 7.0 mph SW11.3 kmh SW 15.0 mph24.1 kmh 29.99 in1015.6 mb 0.00 in0.0 mm 0.00 in0.0 mm 0.00 in0.0 mm
04:00 PM 83.5°F28.6°C 72.5°F22.5°C 70% 7.0 mph SW11.3 kmh SW 12.0 mph19.3 kmh 29.99 in1015.6 mb 0.00 in0.0 mm 0.00 in0.0 mm 0.00 in0.0 mm
03:50 PM 81.7°F27.6°C 70.9°F21.6°C 70% 7.0 mph SW11.3 kmh SW 10.0 mph16.1 kmh 30.00 in1015.9 mb 0.00 in0.0 mm 0.00 in0.0 mm 0.00 in0.0 mm
03:40 PM 82.0°F27.8°C 70.0°F21.1°C 67% 7.0 mph SW11.3 kmh SW 12.0 mph19.3 kmh 29.99 in1015.6 mb 0.00 in0.0 mm 0.00 in0.0 mm 0.00 in0.0 mm
03:30 PM 82.2°F27.9°C 69.6°F20.9°C 66% 7.0 mph SW11.3 kmh SW 12.0 mph19.3 kmh 29.99 in1015.6 mb 0.00 in0.0 mm 0.00 in0.0 mm 0.00 in0.0 mm
03:20 PM 81.7°F27.6°C 70.2°F21.2°C 68% 7.0 mph SW11.3 kmh SW 12.0 mph19.3 kmh 30.00 in1015.9 mb 0.00 in0.0 mm 0.00 in0.0 mm 0.00 in0.0 mm
03:10 PM 81.1°F27.3°C 70.9°F21.6°C 71% 8.0 mph SW12.9 kmh SW 13.0 mph20.9 kmh 30.00 in1015.9 mb 0.00 in0.0 mm 0.00 in0.0 mm 0.00 in0.0 mm
03:00 PM 81.0°F27.2°C 72.0°F22.2°C 74% 9.0 mph SW14.5 kmh SW 15.0 mph24.1 kmh 30.00 in1015.9 mb 0.00 in0.0 mm 0.00 in0.0 mm 0.00 in0.0 mm
02:50 PM 81.1°F27.3°C 72.5°F22.5°C 75% 8.0 mph SW12.9 kmh SW 13.0 mph20.9 kmh 30.00 in1015.9 mb 0.00 in0.0 mm 0.00 in0.0 mm 0.00 in0.0 mm
02:40 PM 81.7°F27.6°C 71.8°F22.1°C 72% 8.0 mph SW12.9 kmh SW 13.0 mph20.9 kmh 30.00 in1015.9 mb 0.00 in0.0 mm 0.00 in0.0 mm 0.00 in0.0 mm
02:30 PM 82.2°F27.9°C 71.8°F22.1°C 71% 8.0 mph SW12.9 kmh SW 11.0 mph17.7 kmh 30.00 in1015.9 mb 0.00 in0.0 mm 0.00 in0.0 mm 0.00 in0.0 mm
02:20 PM 82.8°F28.2°C 72.0°F22.2°C 70% 7.0 mph SW11.3 kmh SW 12.0 mph19.3 kmh 30.00 in1015.9 mb 0.00 in0.0 mm 0.00 in0.0 mm 0.00 in0.0 mm
02:10 PM 83.3°F28.5°C 72.1°F22.3°C 69% 6.0 mph SW9.7 kmh SW 13.0 mph20.9 kmh 30.00 in1015.9 mb 0.00 in0.0 mm 0.00 in0.0 mm 0.00 in0.0 mm
02:00 PM 82.9°F28.3°C 72.9°F22.7°C 72% 8.0 mph SW12.9 kmh SW 13.0 mph20.9 kmh 30.00 in1015.9 mb 0.00 in0.0 mm 0.00 in0.0 mm 0.00 in0.0 mm
01:50 PM 82.9°F28.3°C 72.5°F22.5°C 71% 6.0 mph SW9.7 kmh SW 11.0 mph17.7 kmh 30.00 in1015.9 mb 0.00 in0.0 mm 0.00 in0.0 mm 0.00 in0.0 mm
01:40 PM 83.1°F28.4°C 72.7°F22.6°C 71% 7.0 mph SW11.3 kmh SW 15.0 mph24.1 kmh 30.00 in1015.9 mb 0.00 in0.0 mm 0.00 in0.0 mm 0.00 in0.0 mm
01:30 PM 83.5°F28.6°C 72.3°F22.4°C 69% 5.0 mph WSW8.0 kmh WSW 10.0 mph16.1 kmh 30.00 in1015.9 mb 0.00 in0.0 mm 0.00 in0.0 mm 0.00 in0.0 mm
01:20 PM 83.5°F28.6°C 73.0°F22.8°C 71% 4.0 mph SW6.4 kmh SW 10.0 mph16.1 kmh 30.00 in1015.9 mb 0.00 in0.0 mm 0.00 in0.0 mm 0.00 in0.0 mm
01:10 PM 82.9°F28.3°C 72.7°F22.6°C 71% 4.0 mph SW6.4 kmh SW 7.0 mph11.3 kmh 30.00 in1015.9 mb 0.00 in0.0 mm 0.00 in0.0 mm 0.00 in0.0 mm
01:00 PM 82.0°F27.8°C 72.1°F22.3°C 72% 6.0 mph SW9.7 kmh SW 12.0 mph19.3 kmh 30.00 in1015.9 mb 0.00 in0.0 mm 0.00 in0.0 mm 0.00 in0.0 mm
12:50 PM 82.6°F28.1°C 72.3°F22.4°C 71% 6.0 mph SW9.7 kmh SW 10.0 mph16.1 kmh 30.00 in1015.9 mb 0.00 in0.0 mm 0.00 in0.0 mm 0.00 in0.0 mm
12:40 PM 83.7°F28.7°C 71.6°F22.0°C 67% 4.0 mph WSW6.4 kmh WSW 8.0 mph12.9 kmh 30.00 in1015.9 mb 0.00 in0.0 mm 0.00 in0.0 mm 0.00 in0.0 mm
12:30 PM 84.7°F29.3°C 69.3°F20.7°C 60% 5.0 mph WSW8.0 kmh WSW 11.0 mph17.7 kmh 30.00 in1015.9 mb 0.00 in0.0 mm 0.00 in0.0 mm 0.00 in0.0 mm
12:20 PM 84.9°F29.4°C 68.5°F20.3°C 58% 5.0 mph W8.0 kmh W 9.0 mph14.5 kmh 30.00 in1015.9 mb 0.00 in0.0 mm 0.00 in0.0 mm 0.00 in0.0 mm
12:10 PM 85.5°F29.7°C 69.1°F20.6°C 58% 4.0 mph W6.4 kmh W 8.0 mph12.9 kmh 29.99 in1015.6 mb 0.00 in0.0 mm 0.00 in0.0 mm 0.00 in0.0 mm
12:00 PM 85.3°F29.6°C 70.9°F21.6°C 62% 4.0 mph WNW6.4 kmh WNW 8.0 mph12.9 kmh 30.00 in1015.9 mb 0.00 in0.0 mm 0.00 in0.0 mm 0.00 in0.0 mm
11:50 AM 84.7°F29.3°C 69.4°F20.8°C 60% 4.0 mph WNW6.4 kmh WNW 8.0 mph12.9 kmh 30.00 in1015.9 mb 0.00 in0.0 mm 0.00 in0.0 mm 0.00 in0.0 mm
11:40 AM 84.4°F29.1°C 70.0°F21.1°C 62% 3.0 mph W4.8 kmh W 8.0 mph12.9 kmh 30.00 in1015.9 mb 0.00 in0.0 mm 0.00 in0.0 mm 0.00 in0.0 mm
11:30 AM 84.2°F29.0°C 70.2°F21.2°C 63% 3.0 mph NW4.8 kmh NW 7.0 mph11.3 kmh 30.00 in1015.9 mb 0.00 in0.0 mm 0.00 in0.0 mm 0.00 in0.0 mm
11:20 AM 83.5°F28.6°C 70.5°F21.4°C 65% 4.0 mph WNW6.4 kmh WNW 9.0 mph14.5 kmh 30.00 in1015.9 mb 0.00 in0.0 mm 0.00 in0.0 mm 0.00 in0.0 mm
11:10 AM 83.7°F28.7°C 70.2°F21.2°C 64% 4.0 mph WNW6.4 kmh WNW 10.0 mph16.1 kmh 30.00 in1015.9 mb 0.00 in0.0 mm 0.00 in0.0 mm 0.00 in0.0 mm
11:00 AM 83.8°F28.8°C 70.3°F21.3°C 64% 4.0 mph WNW6.4 kmh WNW 9.0 mph14.5 kmh 30.00 in1015.9 mb 0.00 in0.0 mm 0.00 in0.0 mm 0.00 in0.0 mm
10:50 AM 82.9°F28.3°C 71.4°F21.9°C 68% 3.0 mph W4.8 kmh W 7.0 mph11.3 kmh 30.00 in1015.9 mb 0.00 in0.0 mm 0.00 in0.0 mm 0.00 in0.0 mm
10:40 AM 82.0°F27.8°C 70.5°F21.4°C 68% 2.0 mph WNW3.2 kmh WNW 6.0 mph9.7 kmh 30.00 in1015.9 mb 0.00 in0.0 mm 0.00 in0.0 mm 0.00 in0.0 mm
10:30 AM 81.1°F27.3°C 70.0°F21.1°C 69% 3.0 mph W4.8 kmh W 7.0 mph11.3 kmh 30.00 in1015.9 mb 0.00 in0.0 mm 0.00 in0.0 mm 0.00 in0.0 mm
10:20 AM 81.1°F27.3°C 70.0°F21.1°C 69% 3.0 mph NW4.8 kmh NW 7.0 mph11.3 kmh 30.00 in1015.9 mb 0.00 in0.0 mm 0.00 in0.0 mm 0.00 in0.0 mm
10:10 AM 81.3°F27.4°C 71.8°F22.1°C 73% 3.0 mph NW4.8 kmh NW 9.0 mph14.5 kmh 30.00 in1015.9 mb 0.00 in0.0 mm 0.00 in0.0 mm 0.00 in0.0 mm
10:00 AM 81.3°F27.4°C 71.4°F21.9°C 72% 4.0 mph WNW6.4 kmh WNW 8.0 mph12.9 kmh 30.00 in1015.9 mb 0.00 in0.0 mm 0.00 in0.0 mm 0.00 in0.0 mm
09:50 AM 80.8°F27.1°C 71.6°F22.0°C 74% 3.0 mph WNW4.8 kmh WNW 6.0 mph9.7 kmh 29.99 in1015.6 mb 0.00 in0.0 mm 0.00 in0.0 mm 0.00 in0.0 mm
09:40 AM 79.7°F26.5°C 70.3°F21.3°C 73% 4.0 mph WNW6.4 kmh WNW 8.0 mph12.9 kmh 29.99 in1015.6 mb 0.00 in0.0 mm 0.00 in0.0 mm 0.00 in0.0 mm
09:30 AM 79.2°F26.2°C 70.5°F21.4°C 75% 3.0 mph WNW4.8 kmh WNW 10.0 mph16.1 kmh 29.99 in1015.6 mb 0.00 in0.0 mm 0.00 in0.0 mm 0.00 in0.0 mm
09:20 AM 78.4°F25.8°C 70.5°F21.4°C 77% 2.0 mph WNW3.2 kmh WNW 5.0 mph8.0 kmh 29.99 in1015.6 mb 0.00 in0.0 mm 0.00 in0.0 mm 0.00 in0.0 mm
09:10 AM 77.5°F25.3°C 69.8°F21.0°C 77% 3.0 mph WNW4.8 kmh WNW 7.0 mph11.3 kmh 29.99 in1015.6 mb 0.00 in0.0 mm 0.00 in0.0 mm 0.00 in0.0 mm
09:00 AM 77.5°F25.3°C 69.8°F21.0°C 77% 2.0 mph WNW3.2 kmh WNW 5.0 mph8.0 kmh 29.99 in1015.6 mb 0.00 in0.0 mm 0.00 in0.0 mm 0.00 in0.0 mm
08:50 AM 76.6°F24.8°C 69.3°F20.7°C 78% 2.0 mph WNW3.2 kmh WNW 6.0 mph9.7 kmh 29.99 in1015.6 mb 0.00 in0.0 mm 0.00 in0.0 mm 0.00 in0.0 mm
08:40 AM 76.3°F24.6°C 68.9°F20.5°C 78% 2.0 mph NW3.2 kmh NW 6.0 mph9.7 kmh 29.99 in1015.6 mb 0.00 in0.0 mm 0.00 in0.0 mm 0.00 in0.0 mm
08:30 AM 74.8°F23.8°C 68.5°F20.3°C 81% 1.0 mph NW1.6 kmh NW 5.0 mph8.0 kmh 29.98 in1015.2 mb 0.00 in0.0 mm 0.00 in0.0 mm 0.00 in0.0 mm
08:20 AM 73.6°F23.1°C 67.5°F19.7°C 81% 1.0 mph NW1.6 kmh NW 3.0 mph4.8 kmh 29.98 in1015.2 mb 0.00 in0.0 mm 0.00 in0.0 mm 0.00 in0.0 mm
08:10 AM 72.5°F22.5°C 67.1°F19.5°C 83% 2.0 mph NW3.2 kmh NW 4.0 mph6.4 kmh 29.98 in1015.2 mb 0.00 in0.0 mm 0.00 in0.0 mm 0.00 in0.0 mm
08:00 AM 71.2°F21.8°C 66.4°F19.1°C 85% 1.0 mph NW1.6 kmh NW 3.0 mph4.8 kmh 29.98 in1015.2 mb 0.00 in0.0 mm 0.00 in0.0 mm 0.00 in0.0 mm
07:50 AM 70.2°F21.2°C 65.8°F18.8°C 86% 1.0 mph NW1.6 kmh NW 4.0 mph6.4 kmh 29.98 in1015.2 mb 0.00 in0.0 mm 0.00 in0.0 mm 0.00 in0.0 mm
07:40 AM 70.0°F21.1°C 65.5°F18.6°C 86% 1.0 mph NW1.6 kmh NW 3.0 mph4.8 kmh 29.98 in1015.2 mb 0.00 in0.0 mm 0.00 in0.0 mm 0.00 in0.0 mm
07:30 AM 70.0°F21.1°C 65.7°F18.7°C 86% 1.0 mph NW1.6 kmh NW 3.0 mph4.8 kmh 29.98 in1015.2 mb 0.00 in0.0 mm 0.00 in0.0 mm 0.00 in0.0 mm
07:20 AM 70.0°F21.1°C 65.7°F18.7°C 86% 1.0 mph NW1.6 kmh NW 4.0 mph6.4 kmh 29.98 in1015.2 mb 0.00 in0.0 mm 0.00 in0.0 mm 0.00 in0.0 mm
07:10 AM 69.6°F20.9°C 65.3°F18.5°C 86% 1.0 mph NW1.6 kmh NW 3.0 mph4.8 kmh 29.98 in1015.2 mb 0.00 in0.0 mm 0.00 in0.0 mm 0.00 in0.0 mm
07:00 AM 69.6°F20.9°C 65.5°F18.6°C 87% 1.0 mph NW1.6 kmh NW 4.0 mph6.4 kmh 29.98 in1015.2 mb 0.00 in0.0 mm 0.00 in0.0 mm 0.00 in0.0 mm
06:50 AM 69.4°F20.8°C 65.1°F18.4°C 86% 1.0 mph NW1.6 kmh NW 4.0 mph6.4 kmh 29.97 in1014.9 mb 0.00 in0.0 mm 0.00 in0.0 mm 0.00 in0.0 mm
06:40 AM 69.6°F20.9°C 65.3°F18.5°C 86% 1.0 mph NW1.6 kmh NW 3.0 mph4.8 kmh 29.97 in1014.9 mb 0.00 in0.0 mm 0.00 in0.0 mm 0.00 in0.0 mm
06:30 AM 69.6°F20.9°C 65.3°F18.5°C 86% 2.0 mph NW3.2 kmh NW 6.0 mph9.7 kmh 29.97 in1014.9 mb 0.00 in0.0 mm 0.00 in0.0 mm 0.00 in0.0 mm
06:20 AM 69.6°F20.9°C 65.3°F18.5°C 86% 2.0 mph NW3.2 kmh NW 5.0 mph8.0 kmh 29.97 in1014.9 mb 0.00 in0.0 mm 0.00 in0.0 mm 0.00 in0.0 mm
06:10 AM 69.6°F20.9°C 64.9°F18.3°C 85% 2.0 mph NW3.2 kmh NW 5.0 mph8.0 kmh 29.97 in1014.9 mb 0.00 in0.0 mm 0.00 in0.0 mm 0.00 in0.0 mm
06:00 AM 70.0°F21.1°C 65.1°F18.4°C 85% 2.0 mph NW3.2 kmh NW 5.0 mph8.0 kmh 29.96 in1014.6 mb 0.00 in0.0 mm 0.00 in0.0 mm 0.00 in0.0 mm
05:50 AM 70.0°F21.1°C 65.3°F18.5°C 85% 1.0 mph NW1.6 kmh NW 4.0 mph6.4 kmh 29.96 in1014.6 mb 0.00 in0.0 mm 0.00 in0.0 mm 0.00 in0.0 mm
05:40 AM 70.2°F21.2°C 65.3°F18.5°C 85% 2.0 mph NW3.2 kmh NW 5.0 mph8.0 kmh 29.96 in1014.6 mb 0.00 in0.0 mm 0.00 in0.0 mm 0.00 in0.0 mm
05:30 AM 70.0°F21.1°C 65.3°F18.5°C 85% 1.0 mph NW1.6 kmh NW 5.0 mph8.0 kmh 29.95 in1014.2 mb 0.00 in0.0 mm 0.00 in0.0 mm 0.00 in0.0 mm
05:20 AM 70.2°F21.2°C 65.5°F18.6°C 85% 1.0 mph NW1.6 kmh NW 4.0 mph6.4 kmh 29.95 in1014.2 mb 0.00 in0.0 mm 0.00 in0.0 mm 0.00 in0.0 mm
05:10 AM 70.3°F21.3°C 65.3°F18.5°C 84% 1.0 mph NW1.6 kmh NW 4.0 mph6.4 kmh 29.95 in1014.2 mb 0.00 in0.0 mm 0.00 in0.0 mm 0.00 in0.0 mm
05:00 AM 70.3°F21.3°C 65.3°F18.5°C 84% 1.0 mph NW1.6 kmh NW 4.0 mph6.4 kmh 29.95 in1014.2 mb 0.00 in0.0 mm 0.00 in0.0 mm 0.00 in0.0 mm
04:50 AM 70.5°F21.4°C 65.5°F18.6°C 84% 1.0 mph NW1.6 kmh NW 4.0 mph6.4 kmh 29.95 in1014.2 mb 0.00 in0.0 mm 0.00 in0.0 mm 0.00 in0.0 mm
04:40 AM 70.7°F21.5°C 65.7°F18.7°C 84% 1.0 mph NW1.6 kmh NW 5.0 mph8.0 kmh 29.95 in1014.2 mb 0.00 in0.0 mm 0.00 in0.0 mm 0.00 in0.0 mm
04:30 AM 70.9°F21.6°C 65.7°F18.7°C 84% 1.0 mph NW1.6 kmh NW 3.0 mph4.8 kmh 29.95 in1014.2 mb 0.00 in0.0 mm 0.00 in0.0 mm 0.00 in0.0 mm
04:20 AM 71.1°F21.7°C 65.7°F18.7°C 83% 2.0 mph NW3.2 kmh NW 4.0 mph6.4 kmh 29.94 in1013.9 mb 0.00 in0.0 mm 0.00 in0.0 mm 0.00 in0.0 mm
04:10 AM 70.9°F21.6°C 65.8°F18.8°C 84% 2.0 mph NW3.2 kmh NW 6.0 mph9.7 kmh 29.94 in1013.9 mb 0.00 in0.0 mm 0.00 in0.0 mm 0.00 in0.0 mm
04:00 AM 70.9°F21.6°C 65.8°F18.8°C 84% 2.0 mph NW3.2 kmh NW 4.0 mph6.4 kmh 29.94 in1013.9 mb 0.00 in0.0 mm 0.00 in0.0 mm 0.00 in0.0 mm
03:50 AM 70.9°F21.6°C 65.8°F18.8°C 84% 2.0 mph NW3.2 kmh NW 5.0 mph8.0 kmh 29.94 in1013.9 mb 0.00 in0.0 mm 0.00 in0.0 mm 0.00 in0.0 mm
03:40 AM 71.1°F21.7°C 65.8°F18.8°C 84% 2.0 mph NW3.2 kmh NW 6.0 mph9.7 kmh 29.94 in1013.9 mb 0.00 in0.0 mm 0.00 in0.0 mm 0.00 in0.0 mm
03:30 AM 71.1°F21.7°C 65.8°F18.8°C 84% 2.0 mph NW3.2 kmh NW 5.0 mph8.0 kmh 29.94 in1013.9 mb 0.00 in0.0 mm 0.00 in0.0 mm 0.00 in0.0 mm
03:20 AM 71.1°F21.7°C 65.8°F18.8°C 84% 2.0 mph NW3.2 kmh NW 5.0 mph8.0 kmh 29.93 in1013.5 mb 0.00 in0.0 mm 0.00 in0.0 mm 0.00 in0.0 mm
03:10 AM 71.2°F21.8°C 65.8°F18.8°C 83% 2.0 mph NW3.2 kmh NW 4.0 mph6.4 kmh 29.93 in1013.5 mb 0.00 in0.0 mm 0.00 in0.0 mm 0.00 in0.0 mm
03:00 AM 71.6°F22.0°C 65.8°F18.8°C 82% 1.0 mph NW1.6 kmh NW 2.0 mph3.2 kmh 29.93 in1013.5 mb 0.00 in0.0 mm 0.00 in0.0 mm 0.00 in0.0 mm
02:50 AM 72.0°F22.2°C 65.8°F18.8°C 81% 2.0 mph NW3.2 kmh NW 6.0 mph9.7 kmh 29.93 in1013.5 mb 0.00 in0.0 mm 0.00 in0.0 mm 0.00 in0.0 mm
02:40 AM 72.0°F22.2°C 65.8°F18.8°C 81% 2.0 mph WNW3.2 kmh WNW 5.0 mph8.0 kmh 29.93 in1013.5 mb 0.00 in0.0 mm 0.00 in0.0 mm 0.00 in0.0 mm
02:30 AM 72.0°F22.2°C 65.8°F18.8°C 81% 1.0 mph WNW1.6 kmh WNW 4.0 mph6.4 kmh 29.93 in1013.5 mb 0.00 in0.0 mm 0.00 in0.0 mm 0.00 in0.0 mm
02:20 AM 72.1°F22.3°C 66.0°F18.9°C 81% 2.0 mph W3.2 kmh W 5.0 mph8.0 kmh 29.93 in1013.5 mb 0.00 in0.0 mm 0.00 in0.0 mm 0.00 in0.0 mm
02:10 AM 72.1°F22.3°C 65.7°F18.7°C 80% 2.0 mph W3.2 kmh W 4.0 mph6.4 kmh 29.93 in1013.5 mb 0.00 in0.0 mm 0.00 in0.0 mm 0.00 in0.0 mm
02:00 AM 72.3°F22.4°C 65.8°F18.8°C 80% 2.0 mph W3.2 kmh W 5.0 mph8.0 kmh 29.93 in1013.5 mb 0.00 in0.0 mm 0.00 in0.0 mm 0.00 in0.0 mm
01:50 AM 72.5°F22.5°C 65.7°F18.7°C 79% 2.0 mph W3.2 kmh W 4.0 mph6.4 kmh 29.93 in1013.5 mb 0.00 in0.0 mm 0.00 in0.0 mm 0.00 in0.0 mm
01:40 AM 72.9°F22.7°C 65.5°F18.6°C 78% 2.0 mph W3.2 kmh W 5.0 mph8.0 kmh 29.93 in1013.5 mb 0.00 in0.0 mm 0.00 in0.0 mm 0.00 in0.0 mm
01:30 AM 73.0°F22.8°C 65.8°F18.8°C 78% 3.0 mph W4.8 kmh W 5.0 mph8.0 kmh 29.94 in1013.9 mb 0.00 in0.0 mm 0.00 in0.0 mm 0.00 in0.0 mm
01:20 AM 73.0°F22.8°C 65.7°F18.7°C 78% 2.0 mph W3.2 kmh W 6.0 mph9.7 kmh 29.94 in1013.9 mb 0.00 in0.0 mm 0.00 in0.0 mm 0.00 in0.0 mm
01:10 AM 72.9°F22.7°C 65.7°F18.7°C 78% 2.0 mph W3.2 kmh W 5.0 mph8.0 kmh 29.94 in1013.9 mb 0.00 in0.0 mm 0.00 in0.0 mm 0.00 in0.0 mm
01:00 AM 72.9°F22.7°C 65.7°F18.7°C 78% 2.0 mph W3.2 kmh W 4.0 mph6.4 kmh 29.94 in1013.9 mb 0.00 in0.0 mm 0.00 in0.0 mm 0.00 in0.0 mm
12:50 AM 73.0°F22.8°C 65.7°F18.7°C 78% 2.0 mph WSW3.2 kmh WSW 5.0 mph8.0 kmh 29.94 in1013.9 mb 0.00 in0.0 mm 0.00 in0.0 mm 0.00 in0.0 mm
12:40 AM 73.0°F22.8°C 65.7°F18.7°C 78% 2.0 mph WSW3.2 kmh WSW 5.0 mph8.0 kmh 29.94 in1013.9 mb 0.00 in0.0 mm 0.00 in0.0 mm 0.00 in0.0 mm
12:30 AM 72.9°F22.7°C 65.7°F18.7°C 78% 2.0 mph WSW3.2 kmh WSW 5.0 mph8.0 kmh 29.94 in1013.9 mb 0.00 in0.0 mm 0.00 in0.0 mm 0.00 in0.0 mm
12:20 AM 72.9°F22.7°C 65.7°F18.7°C 78% 2.0 mph WSW3.2 kmh WSW 4.0 mph6.4 kmh 29.93 in1013.5 mb 0.00 in0.0 mm 0.00 in0.0 mm 0.00 in0.0 mm
12:10 AM 73.0°F22.8°C 65.3°F18.5°C 77% 2.0 mph W3.2 kmh W 4.0 mph6.4 kmh 29.93 in1013.5 mb 0.00 in0.0 mm 0.00 in0.0 mm 0.00 in0.0 mm
12:00 AM 73.0°F22.8°C 65.5°F18.6°C 77% 2.0 mph W3.2 kmh W 4.0 mph6.4 kmh 29.93 in1013.5 mb 0.00 in0.0 mm 0.00 in0.0 mm 0.00 in0.0 mm